createdAt,value
2022-10-15T00:02:01.212Z,36.65
2022-10-15T00:04:31.823Z,35.25
2022-10-15T00:07:02.360Z,33.83
2022-10-15T00:09:32.493Z,34.80
2022-10-15T00:12:00.786Z,33.53
2022-10-15T00:14:29.236Z,34.05
2022-10-15T00:17:02.600Z,34.47
2022-10-15T00:19:33.418Z,35.22
2022-10-15T00:24:30.431Z,37.08
2022-10-15T00:27:00.330Z,35.88
2022-10-15T00:29:28.688Z,36.72
2022-10-15T00:32:00.513Z,35.78
2022-10-15T00:34:28.801Z,34.75
2022-10-15T00:36:56.547Z,37.13
2022-10-15T00:39:26.989Z,34.85
2022-10-15T00:44:26.817Z,34.00
2022-10-15T00:47:04.719Z,36.03
2022-10-15T00:49:48.869Z,33.97
2022-10-15T00:52:26.605Z,35.40
2022-10-15T00:55:11.545Z,34.35
2022-10-15T00:57:40.521Z,38.17
2022-10-15T01:00:13.011Z,34.75
2022-10-15T01:02:44.374Z,37.20
2022-10-15T01:05:16.353Z,37.33
2022-10-15T01:07:46.874Z,37.17
2022-10-15T01:10:35.704Z,36.22
2022-10-15T01:13:14.904Z,36.22
2022-10-15T01:16:18.445Z,37.00
2022-10-15T01:18:52.326Z,36.63
2022-10-15T01:21:37.646Z,36.15
2022-10-15T01:24:28.282Z,37.22
2022-10-15T01:27:21.193Z,34.13
2022-10-15T01:30:24.162Z,37.38
2022-10-15T01:33:27.677Z,34.42
2022-10-15T01:36:19.344Z,36.00
2022-10-15T01:39:30.236Z,34.50
2022-10-15T01:42:26.298Z,34.37
2022-10-15T01:45:00.699Z,35.33
2022-10-15T01:47:56.828Z,36.00
2022-10-15T01:50:34.122Z,35.42
2022-10-15T01:53:11.166Z,40.20
2022-10-15T01:55:44.261Z,37.22
2022-10-15T01:58:14.671Z,35.25
2022-10-15T02:03:11.182Z,35.55
2022-10-15T02:05:45.670Z,38.25
2022-10-15T02:08:25.680Z,37.17
2022-10-15T02:11:11.906Z,37.80
2022-10-15T02:14:02.383Z,37.10
2022-10-15T02:16:59.753Z,34.92
2022-10-15T02:19:42.788Z,37.05
2022-10-15T02:22:49.582Z,37.95
2022-10-15T02:25:24.340Z,37.78
2022-10-15T02:27:59.494Z,36.30
2022-10-15T02:30:30.341Z,36.60
2022-10-15T02:33:00.430Z,36.65
2022-10-15T02:35:29.236Z,35.10
2022-10-15T02:38:05.650Z,35.72
2022-10-15T02:40:39.038Z,39.88
2022-10-15T02:43:13.223Z,37.05
2022-10-15T02:45:41.738Z,39.08
2022-10-15T02:48:10.349Z,36.58
2022-10-15T02:50:41.197Z,38.72
2022-10-15T02:53:09.237Z,37.88
2022-10-15T02:55:38.198Z,35.33
2022-10-15T02:58:05.760Z,36.53
2022-10-15T03:00:34.295Z,36.95
2022-10-15T03:03:03.399Z,36.20
2022-10-15T03:05:31.797Z,36.13
2022-10-15T03:08:03.630Z,37.33
2022-10-15T03:10:32.766Z,37.58
2022-10-15T03:13:10.482Z,37.83
2022-10-15T03:15:47.131Z,37.70
2022-10-15T03:18:16.309Z,36.00
2022-10-15T03:20:55.584Z,39.97
2022-10-15T03:23:24.747Z,37.08
2022-10-15T03:26:03.434Z,37.30
2022-10-15T03:28:33.880Z,39.53
2022-10-15T03:31:01.908Z,38.88
2022-10-15T03:33:31.378Z,38.67
2022-10-15T03:35:59.310Z,39.30
2022-10-15T03:38:29.472Z,37.53
2022-10-15T03:40:59.256Z,40.30
2022-10-15T03:43:37.398Z,38.80
2022-10-15T03:46:09.598Z,38.67
2022-10-15T03:48:50.661Z,40.00
2022-10-15T03:51:24.372Z,38.20
2022-10-15T03:53:59.274Z,38.10
2022-10-15T03:56:27.560Z,39.80
2022-10-15T03:59:07.438Z,38.20
2022-10-15T04:01:36.199Z,38.65
2022-10-15T04:06:38.961Z,36.00
2022-10-15T04:09:12.008Z,39.83
2022-10-15T04:11:41.428Z,43.80
2022-10-15T04:14:09.809Z,39.95
2022-10-15T04:16:38.244Z,46.20
2022-10-15T04:19:17.818Z,40.25
2022-10-15T04:21:56.762Z,38.92
2022-10-15T04:24:34.710Z,40.90
2022-10-15T04:27:02.978Z,43.65
2022-10-15T04:29:34.952Z,41.08
2022-10-15T04:32:17.984Z,40.20
2022-10-15T04:34:47.534Z,40.17
2022-10-15T04:37:17.514Z,40.72
2022-10-15T04:39:45.154Z,39.13
2022-10-15T04:42:22.336Z,39.33
2022-10-15T04:44:53.417Z,39.83
2022-10-15T04:47:24.731Z,40.50
2022-10-15T04:50:03.896Z,41.30
2022-10-15T04:52:54.732Z,39.38
2022-10-15T04:55:31.206Z,39.92
2022-10-15T04:58:07.088Z,40.85
2022-10-15T05:00:38.829Z,44.85
2022-10-15T05:03:38.517Z,42.65
2022-10-15T05:06:13.974Z,43.42
2022-10-15T05:08:47.464Z,44.47
2022-10-15T05:11:25.823Z,43.90
2022-10-15T05:13:58.462Z,42.15
2022-10-15T05:16:29.507Z,43.90
2022-10-15T05:19:05.121Z,41.20
2022-10-15T05:21:37.406Z,41.22
2022-10-15T05:24:17.160Z,47.25
2022-10-15T05:27:14.301Z,42.63
2022-10-15T05:29:43.309Z,43.10
2022-10-15T05:32:14.101Z,44.67
2022-10-15T05:34:42.223Z,44.00
2022-10-15T05:37:15.211Z,46.60
2022-10-15T05:39:46.557Z,47.53
2022-10-15T05:42:17.087Z,47.58
2022-10-15T05:44:57.664Z,46.20
2022-10-15T05:47:28.150Z,51.33
2022-10-15T05:50:13.273Z,46.30
2022-10-15T05:52:45.401Z,51.08
2022-10-15T05:55:42.699Z,48.97
2022-10-15T05:58:15.732Z,51.22
2022-10-15T06:00:46.268Z,49.05
2022-10-15T06:03:14.939Z,49.95
2022-10-15T06:05:42.863Z,50.08
2022-10-15T06:08:11.604Z,49.10
2022-10-15T06:10:40.040Z,48.92
2022-10-15T06:13:09.185Z,48.65
2022-10-15T06:15:53.843Z,49.25
2022-10-15T06:18:23.332Z,50.45
2022-10-15T06:20:54.898Z,50.77
2022-10-15T06:23:24.459Z,50.20
2022-10-15T06:25:52.632Z,51.83
2022-10-15T06:28:21.195Z,48.90
2022-10-15T06:30:48.852Z,55.08
2022-10-15T06:33:19.550Z,52.28
2022-10-15T06:35:47.703Z,52.27
2022-10-15T06:38:15.593Z,53.20
2022-10-15T06:40:43.551Z,56.58
2022-10-15T06:43:12.567Z,53.67
2022-10-15T06:45:42.720Z,52.33
2022-10-15T06:48:18.744Z,52.70
2022-10-15T06:50:46.501Z,53.33
2022-10-15T06:53:14.218Z,51.60
2022-10-15T06:55:45.838Z,53.20
2022-10-15T06:58:13.706Z,50.33
2022-10-15T07:00:41.603Z,54.53
2022-10-15T07:03:12.545Z,54.35
2022-10-15T07:05:40.421Z,55.08
2022-10-15T07:08:08.959Z,53.17
2022-10-15T07:10:43.610Z,54.03
2022-10-15T07:15:39.529Z,53.00
2022-10-15T07:18:07.580Z,53.60
2022-10-15T07:20:40.411Z,51.75
2022-10-15T07:23:08.026Z,49.92
2022-10-15T07:25:36.704Z,50.72
2022-10-15T07:28:04.852Z,52.42
2022-10-15T07:30:36.363Z,48.40
2022-10-15T07:33:04.357Z,50.90
2022-10-15T07:35:38.997Z,52.10
2022-10-15T07:38:07.097Z,53.30
2022-10-15T07:40:35.170Z,51.63
2022-10-15T07:43:04.446Z,50.97
2022-10-15T07:45:32.857Z,50.47
2022-10-15T07:48:03.285Z,51.60
2022-10-15T07:50:34.285Z,47.88
2022-10-15T07:53:07.110Z,48.50
2022-10-15T07:55:35.278Z,49.75
2022-10-15T07:58:06.082Z,49.55
2022-10-15T08:00:35.104Z,48.47
2022-10-15T08:03:03.207Z,50.03
2022-10-15T08:05:31.365Z,48.22
2022-10-15T08:08:00.102Z,48.72
2022-10-15T08:10:28.229Z,48.70
2022-10-15T08:12:57.583Z,48.65
2022-10-15T08:15:25.224Z,46.60
2022-10-15T08:17:56.944Z,47.65
2022-10-15T08:20:25.048Z,49.70
2022-10-15T08:22:53.423Z,48.30
2022-10-15T08:25:22.268Z,47.83
2022-10-15T08:27:50.668Z,47.67
2022-10-15T08:30:21.261Z,47.53
2022-10-15T08:32:52.355Z,45.85
2022-10-15T08:35:20.021Z,45.72
2022-10-15T08:37:47.862Z,44.92
2022-10-15T08:40:17.162Z,45.45
2022-10-15T08:42:46.934Z,42.08
2022-10-15T08:45:22.900Z,41.42
2022-10-15T08:48:07.576Z,41.10
2022-10-15T08:51:02.528Z,41.28
2022-10-15T08:53:49.740Z,40.95
2022-10-15T08:56:30.755Z,42.00
2022-10-15T08:59:08.133Z,40.03
2022-10-15T09:02:02.062Z,38.65
2022-10-15T09:04:52.329Z,36.55
2022-10-15T09:07:50.824Z,42.80
2022-10-15T09:11:00.042Z,33.03
2022-10-15T09:13:50.110Z,34.03
2022-10-15T09:16:38.398Z,31.65
2022-10-15T09:19:21.568Z,33.78
2022-10-15T09:21:51.386Z,31.35
2022-10-15T09:24:25.661Z,26.88
2022-10-15T09:27:27.095Z,24.40
2022-10-15T09:30:09.602Z,22.23
2022-10-15T09:32:52.006Z,21.45
2022-10-15T09:35:38.791Z,21.20
2022-10-15T09:38:35.470Z,20.92
2022-10-15T09:41:04.447Z,21.92
2022-10-15T09:43:39.400Z,20.92
2022-10-15T09:46:07.219Z,22.83
2022-10-15T09:49:04.497Z,23.60
2022-10-15T09:51:46.028Z,22.20
2022-10-15T09:54:42.898Z,22.20
2022-10-15T09:57:13.426Z,23.40
2022-10-15T10:02:21.921Z,22.13
2022-10-15T10:04:58.526Z,21.80
2022-10-15T10:07:38.773Z,22.85
2022-10-15T10:10:35.340Z,22.17
2022-10-15T10:13:03.305Z,23.63
2022-10-15T10:15:43.777Z,24.05
2022-10-15T10:18:20.627Z,23.80
2022-10-15T10:20:57.595Z,23.27
2022-10-15T10:23:31.728Z,24.02
2022-10-15T10:26:02.668Z,24.40
2022-10-15T10:28:49.369Z,26.23
2022-10-15T10:31:18.348Z,24.63
2022-10-15T10:33:49.358Z,25.67
2022-10-15T10:36:43.378Z,23.50
2022-10-15T10:39:31.967Z,24.55
2022-10-15T10:42:23.058Z,23.58
2022-10-15T10:44:52.704Z,26.08
2022-10-15T10:47:31.441Z,23.75
2022-10-15T10:50:28.482Z,23.25
2022-10-15T10:52:57.735Z,23.65
2022-10-15T10:55:40.333Z,22.77
2022-10-15T10:58:23.478Z,23.55
2022-10-15T11:00:58.721Z,22.90
2022-10-15T11:03:43.162Z,23.38
2022-10-15T11:06:30.270Z,27.42
2022-10-15T11:09:26.250Z,23.92
2022-10-15T11:12:33.379Z,23.70
2022-10-15T11:15:36.139Z,22.58
2022-10-15T11:18:37.311Z,23.23
2022-10-15T11:21:43.847Z,22.90
2022-10-15T11:24:26.071Z,22.70
2022-10-15T11:27:11.910Z,24.70
2022-10-15T11:29:42.316Z,24.60
2022-10-15T11:32:42.119Z,21.38
2022-10-15T11:35:55.409Z,23.27
2022-10-15T11:38:52.062Z,22.60
2022-10-15T11:41:50.928Z,22.00
2022-10-15T11:44:28.673Z,21.50
2022-10-15T11:47:28.426Z,22.13
2022-10-15T11:50:33.050Z,20.98
2022-10-15T11:55:41.544Z,20.98
2022-10-15T11:58:31.284Z,20.45
2022-10-15T12:01:09.037Z,19.63
2022-10-15T12:03:54.385Z,20.38
2022-10-15T12:06:28.031Z,20.60
2022-10-15T12:09:02.312Z,20.80
2022-10-15T12:11:51.846Z,20.10
2022-10-15T12:14:43.704Z,20.05
2022-10-15T12:17:22.642Z,22.25
2022-10-15T12:20:00.913Z,20.77
2022-10-15T12:22:44.453Z,22.38
2022-10-15T12:25:35.015Z,19.70
2022-10-15T12:28:12.063Z,20.13
2022-10-15T12:30:43.153Z,21.45
2022-10-15T12:33:29.313Z,20.98
2022-10-15T12:36:09.558Z,19.88
2022-10-15T12:38:43.347Z,18.88
2022-10-15T12:41:14.863Z,19.10
2022-10-15T12:43:54.126Z,19.17
2022-10-15T12:46:38.478Z,17.92
2022-10-15T12:49:27.819Z,18.58
2022-10-15T12:52:02.293Z,18.38
2022-10-15T12:54:48.985Z,18.77
2022-10-15T12:57:31.586Z,18.88
2022-10-15T13:00:25.563Z,18.92
2022-10-15T13:03:04.622Z,18.73
2022-10-15T13:05:44.050Z,17.98
2022-10-15T13:08:23.360Z,18.00
2022-10-15T13:10:55.724Z,18.00
2022-10-15T13:13:36.281Z,18.85
2022-10-15T13:16:13.220Z,18.35
2022-10-15T13:18:43.109Z,18.10
2022-10-15T13:21:13.785Z,17.77
2022-10-15T13:23:50.409Z,18.38
2022-10-15T13:26:27.669Z,18.35
2022-10-15T13:28:58.332Z,18.25
2022-10-15T13:31:36.699Z,18.08
2022-10-15T13:34:36.008Z,18.38
2022-10-15T13:37:04.940Z,18.73
2022-10-15T13:39:42.254Z,19.05
2022-10-15T13:42:15.358Z,18.98
2022-10-15T13:44:58.558Z,18.17
2022-10-15T13:47:32.592Z,19.70
2022-10-15T13:50:18.644Z,19.13
2022-10-15T13:52:50.452Z,19.60
2022-10-15T13:55:25.564Z,19.80
2022-10-15T13:58:10.013Z,19.52
2022-10-15T14:00:38.014Z,18.55
2022-10-15T14:03:26.930Z,20.45
2022-10-15T14:05:56.000Z,19.45
2022-10-15T14:08:32.981Z,20.23
2022-10-15T14:11:01.440Z,20.02
2022-10-15T14:13:29.981Z,20.17
2022-10-15T14:16:18.015Z,19.77
2022-10-15T14:18:52.029Z,20.38
2022-10-15T14:21:33.122Z,19.88
2022-10-15T14:24:21.918Z,20.25
2022-10-15T14:26:52.801Z,21.05
2022-10-15T14:29:29.683Z,19.25
2022-10-15T14:32:00.368Z,21.10
2022-10-15T14:34:38.845Z,21.80
2022-10-15T14:37:43.507Z,21.17
2022-10-15T14:40:16.484Z,21.17
2022-10-15T14:43:02.676Z,20.88
2022-10-15T14:45:37.005Z,21.73
2022-10-15T14:48:27.966Z,21.35
2022-10-15T14:51:00.875Z,20.92
2022-10-15T14:53:36.930Z,21.58
2022-10-15T14:56:20.459Z,23.67
2022-10-15T14:58:56.901Z,21.63
2022-10-15T15:01:27.946Z,22.63
2022-10-15T15:03:57.635Z,22.67
2022-10-15T15:06:25.572Z,21.20
2022-10-15T15:08:55.968Z,23.10
2022-10-15T15:11:27.894Z,22.90
2022-10-15T15:13:55.820Z,22.35
2022-10-15T15:16:23.901Z,21.98
2022-10-15T15:18:51.938Z,22.50
2022-10-15T15:21:24.335Z,22.42
2022-10-15T15:23:52.294Z,23.15
2022-10-15T15:26:25.854Z,22.70
2022-10-15T15:28:57.091Z,22.73
2022-10-15T15:31:25.505Z,23.65
2022-10-15T15:33:55.480Z,21.55
2022-10-15T15:36:23.991Z,24.17
2022-10-15T15:38:52.235Z,22.20
2022-10-15T15:41:22.904Z,22.27
2022-10-15T15:43:51.822Z,25.08
2022-10-15T15:46:20.023Z,29.67
2022-10-15T15:48:47.935Z,27.20
2022-10-15T15:51:30.877Z,22.85
2022-10-15T15:53:59.149Z,21.77
2022-10-15T15:56:27.300Z,22.35
2022-10-15T15:58:55.001Z,22.83
2022-10-15T16:01:25.620Z,23.10
2022-10-15T16:03:56.235Z,23.80
2022-10-15T16:06:24.413Z,24.88
2022-10-15T16:08:53.279Z,25.02
2022-10-15T16:11:21.484Z,24.00
2022-10-15T16:13:49.349Z,22.02
2022-10-15T16:16:18.508Z,23.27
2022-10-15T16:18:46.444Z,23.25
2022-10-15T16:21:14.450Z,22.70
2022-10-15T16:23:42.602Z,21.88
2022-10-15T16:26:13.244Z,23.33
2022-10-15T16:28:41.036Z,22.35
2022-10-15T16:31:30.343Z,21.48
2022-10-15T16:34:06.462Z,23.15
2022-10-15T16:36:39.806Z,24.77
2022-10-15T16:39:07.606Z,24.65
2022-10-15T16:41:37.864Z,22.85
2022-10-15T16:44:05.635Z,21.03
2022-10-15T16:46:33.783Z,21.95
2022-10-15T16:49:04.553Z,20.80
2022-10-15T16:51:32.582Z,21.50
2022-10-15T16:54:00.617Z,20.65
2022-10-15T16:56:32.882Z,21.02
2022-10-15T16:59:01.655Z,23.40
2022-10-15T17:01:30.249Z,27.10
2022-10-15T17:03:59.320Z,22.65
2022-10-15T17:06:30.471Z,23.55
2022-10-15T17:09:00.326Z,21.30
2022-10-15T17:11:31.812Z,20.37
2022-10-15T17:14:01.812Z,22.35
2022-10-15T17:16:40.141Z,20.83
2022-10-15T17:19:09.076Z,22.85
2022-10-15T17:21:42.440Z,22.90
2022-10-15T17:24:17.990Z,22.13
2022-10-15T17:26:50.041Z,22.30
2022-10-15T17:31:50.020Z,21.13
2022-10-15T17:34:18.612Z,22.55
2022-10-15T17:36:49.964Z,23.33
2022-10-15T17:39:20.861Z,24.70
2022-10-15T17:41:51.225Z,24.75
2022-10-15T17:44:19.524Z,23.73
2022-10-15T17:49:35.331Z,23.25
2022-10-15T17:52:03.497Z,24.13
2022-10-15T17:54:33.625Z,24.50
2022-10-15T17:57:01.904Z,25.35
2022-10-15T17:59:29.696Z,25.63
2022-10-15T18:04:36.927Z,27.52
2022-10-15T18:07:05.151Z,28.08
2022-10-15T18:09:35.882Z,27.20
2022-10-15T18:12:04.056Z,33.72
2022-10-15T18:14:35.106Z,33.42
2022-10-15T18:17:05.844Z,30.73
2022-10-15T18:19:34.096Z,29.45
2022-10-15T18:22:04.537Z,32.10
2022-10-15T18:24:34.599Z,56.05
2022-10-15T18:27:10.902Z,67.68
2022-10-15T18:29:39.788Z,56.72
2022-10-15T18:32:07.833Z,58.08
2022-10-15T18:34:37.777Z,77.37
2022-10-15T18:37:06.015Z,93.57
2022-10-15T18:39:34.004Z,80.95
2022-10-15T18:42:02.757Z,69.00
2022-10-15T18:44:30.688Z,67.10
2022-10-15T18:47:01.534Z,67.07
2022-10-15T18:49:29.372Z,64.30
2022-10-15T18:52:00.412Z,61.03
2022-10-15T18:54:36.651Z,58.45
2022-10-15T18:57:05.563Z,60.88
2022-10-15T18:59:33.315Z,63.85
2022-10-15T19:02:02.766Z,73.40
2022-10-15T19:04:31.287Z,87.93
2022-10-15T19:07:02.514Z,89.97
2022-10-15T19:09:31.685Z,78.07
2022-10-15T19:11:59.716Z,79.25
2022-10-15T19:14:28.547Z,74.10
2022-10-15T19:16:57.449Z,76.75
2022-10-15T19:19:26.658Z,71.28
2022-10-15T19:21:58.468Z,72.45
2022-10-15T19:24:26.486Z,66.88
2022-10-15T19:26:54.749Z,65.18
2022-10-15T19:29:22.518Z,59.67
2022-10-15T19:31:54.742Z,57.90
2022-10-15T19:34:23.450Z,40.25
2022-10-15T19:36:52.162Z,40.80
2022-10-15T19:39:24.768Z,40.17
2022-10-15T19:41:53.746Z,37.35
2022-10-15T19:44:25.869Z,34.60
2022-10-15T19:46:56.395Z,31.85
2022-10-15T19:49:25.579Z,32.15
2022-10-15T19:51:53.988Z,32.28
2022-10-15T19:54:22.150Z,28.80
2022-10-15T19:56:50.342Z,30.67
2022-10-15T19:59:18.467Z,30.02
2022-10-15T20:01:47.013Z,29.52
2022-10-15T20:04:14.682Z,29.27
2022-10-15T20:06:43.827Z,28.45
2022-10-15T20:09:11.463Z,29.13
2022-10-15T20:11:39.606Z,28.58
2022-10-15T20:14:07.622Z,27.98
2022-10-15T20:16:35.726Z,27.88
2022-10-15T20:19:05.636Z,27.25
2022-10-15T20:21:34.100Z,27.42
2022-10-15T20:24:05.320Z,28.48
2022-10-15T20:26:33.716Z,28.00
2022-10-15T20:29:01.455Z,26.95
2022-10-15T20:31:33.151Z,26.45
2022-10-15T20:34:02.868Z,25.40
2022-10-15T20:36:31.245Z,26.50
2022-10-15T20:39:00.925Z,24.85
2022-10-15T20:41:29.353Z,25.17
2022-10-15T20:43:57.394Z,26.75
2022-10-15T20:46:32.959Z,26.17
2022-10-15T20:49:08.442Z,25.55
2022-10-15T20:51:40.050Z,26.02
2022-10-15T20:54:08.546Z,24.50
2022-10-15T20:56:36.591Z,25.08
2022-10-15T20:59:05.325Z,25.67
2022-10-15T21:01:35.065Z,25.85
2022-10-15T21:04:03.885Z,25.88
2022-10-15T21:06:32.177Z,25.45
2022-10-15T21:09:00.239Z,24.58
2022-10-15T21:11:28.477Z,24.20
2022-10-15T21:13:56.559Z,24.55
2022-10-15T21:16:27.457Z,24.52
2022-10-15T21:18:56.285Z,24.60
2022-10-15T21:21:24.591Z,24.05
2022-10-15T21:23:52.908Z,23.70
2022-10-15T21:26:22.216Z,23.63
2022-10-15T21:28:55.090Z,24.60
2022-10-15T21:31:23.832Z,23.20
2022-10-15T21:33:52.311Z,23.88
2022-10-15T21:36:23.062Z,23.30
2022-10-15T21:39:07.506Z,23.52
2022-10-15T21:41:38.753Z,22.73
2022-10-15T21:44:07.911Z,24.23
2022-10-15T21:46:36.330Z,23.08
2022-10-15T21:49:04.247Z,22.38
2022-10-15T21:51:36.131Z,21.52
2022-10-15T21:54:06.070Z,22.00
2022-10-15T21:56:35.180Z,23.50
2022-10-15T21:59:03.032Z,23.73
2022-10-15T22:01:33.852Z,23.15
2022-10-15T22:04:06.803Z,23.23
2022-10-15T22:06:35.780Z,23.20
2022-10-15T22:09:04.621Z,23.30
2022-10-15T22:11:35.583Z,22.02
2022-10-15T22:14:06.364Z,22.90
2022-10-15T22:16:36.943Z,21.67
2022-10-15T22:19:05.833Z,22.60
2022-10-15T22:21:36.639Z,22.35
2022-10-15T22:24:08.330Z,22.65
2022-10-15T22:26:39.074Z,21.52
2022-10-15T22:29:09.354Z,22.65
2022-10-15T22:31:37.412Z,22.55
2022-10-15T22:34:05.173Z,21.13
2022-10-15T22:36:33.237Z,23.23
2022-10-15T22:39:05.226Z,22.13
2022-10-15T22:41:41.950Z,23.48
2022-10-15T22:44:15.227Z,22.65
2022-10-15T22:46:49.764Z,22.10
2022-10-15T22:49:22.792Z,23.02
2022-10-15T22:51:51.174Z,21.88
2022-10-15T22:54:20.925Z,21.90
2022-10-15T22:56:50.124Z,21.57
2022-10-15T22:59:18.121Z,21.27
2022-10-15T23:01:47.027Z,22.35
2022-10-15T23:04:16.648Z,21.58
2022-10-15T23:06:45.169Z,22.33
2022-10-15T23:09:18.222Z,20.63
2022-10-15T23:11:46.898Z,21.60
2022-10-15T23:14:16.504Z,21.08
2022-10-15T23:16:49.836Z,21.27
2022-10-15T23:19:20.485Z,20.30
2022-10-15T23:24:20.805Z,19.88
2022-10-15T23:26:49.359Z,21.08
2022-10-15T23:29:23.292Z,19.90
2022-10-15T23:31:52.782Z,21.20
2022-10-15T23:34:22.625Z,20.63
2022-10-15T23:36:51.887Z,21.35
2022-10-15T23:39:24.089Z,20.63
2022-10-15T23:41:52.687Z,22.00
2022-10-15T23:44:20.731Z,20.88
2022-10-15T23:46:49.166Z,20.90
2022-10-15T23:49:17.023Z,21.23
2022-10-15T23:51:45.240Z,21.00
2022-10-15T23:54:18.368Z,20.65
2022-10-15T23:56:47.638Z,21.90
2022-10-15T23:59:17.253Z,21.15
